createdAt,value
2022-12-18T00:00:01.052Z,86.2
2022-12-18T00:01:01.210Z,86.2
2022-12-18T00:02:00.454Z,86.2
2022-12-18T00:03:00.617Z,86.2
2022-12-18T00:04:00.806Z,86.3
2022-12-18T00:05:00.793Z,86.4
2022-12-18T00:06:00.943Z,86.3
2022-12-18T00:07:01.112Z,86.3
2022-12-18T00:08:01.229Z,86.1
2022-12-18T00:09:00.376Z,86
2022-12-18T00:10:00.517Z,85.8
2022-12-18T00:11:00.736Z,85.8
2022-12-18T00:13:03.889Z,85.8
2022-12-18T00:14:01.107Z,85.7
2022-12-18T00:15:01.251Z,85.7
2022-12-18T00:16:00.469Z,85.7
2022-12-18T00:17:00.577Z,85.7
2022-12-18T00:18:00.703Z,85.5
2022-12-18T00:19:00.831Z,85.6
2022-12-18T00:20:00.986Z,85.5
2022-12-18T00:21:01.134Z,85.5
2022-12-18T00:22:00.297Z,85.4
2022-12-18T00:23:00.424Z,85.4
2022-12-18T00:24:00.586Z,85.4
2022-12-18T00:25:00.718Z,85.1
2022-12-18T00:26:00.864Z,85.1
2022-12-18T00:27:01.035Z,85
2022-12-18T00:28:01.163Z,85
2022-12-18T00:29:00.314Z,85
2022-12-18T00:30:00.451Z,84.9
2022-12-18T00:31:00.605Z,84.8
2022-12-18T00:32:00.840Z,84.8
2022-12-18T00:33:00.926Z,84.9
2022-12-18T00:34:01.046Z,84.8
2022-12-18T00:35:01.181Z,84.9
2022-12-18T00:36:00.330Z,85.1
2022-12-18T00:37:00.476Z,85.2
2022-12-18T00:38:00.669Z,85.3
2022-12-18T00:39:00.795Z,85.4
2022-12-18T00:40:00.942Z,85.5
2022-12-18T00:41:01.094Z,85.5
2022-12-18T00:42:01.248Z,85.4
2022-12-18T00:43:00.403Z,85.4
2022-12-18T00:44:00.568Z,85.3
2022-12-18T00:45:00.675Z,85.3
2022-12-18T00:46:00.868Z,85.3
2022-12-18T00:47:00.979Z,85.3
2022-12-18T00:48:01.118Z,85.4
2022-12-18T00:49:00.290Z,85.6
2022-12-18T00:50:00.422Z,85.6
2022-12-18T00:51:00.555Z,85.6
2022-12-18T00:52:00.709Z,85.6
2022-12-18T00:53:00.856Z,85.6
2022-12-18T00:54:01.030Z,85.7
2022-12-18T00:55:06.022Z,85.7
2022-12-18T00:56:00.302Z,85.8
2022-12-18T00:57:00.457Z,85.8
2022-12-18T00:58:00.595Z,85.6
2022-12-18T00:59:00.773Z,85.5
2022-12-18T01:00:00.896Z,85.4
2022-12-18T01:01:01.112Z,85.3
2022-12-18T01:02:01.362Z,85.4
2022-12-18T01:03:00.396Z,85.4
2022-12-18T01:04:00.501Z,85.3
2022-12-18T01:05:00.652Z,85.3
2022-12-18T01:06:00.785Z,85.2
2022-12-18T01:07:00.936Z,85.4
2022-12-18T01:08:01.084Z,85.6
2022-12-18T01:09:01.229Z,85.6
2022-12-18T01:10:00.388Z,85.6
2022-12-18T01:11:00.518Z,85.5
2022-12-18T01:12:00.672Z,85.5
2022-12-18T01:13:00.834Z,85.6
2022-12-18T01:14:00.978Z,85.8
2022-12-18T01:15:01.106Z,85.8
2022-12-18T01:17:00.356Z,85.8
2022-12-18T01:18:00.513Z,85.9
2022-12-18T01:19:00.651Z,85.9
2022-12-18T01:20:00.787Z,86
2022-12-18T01:21:00.943Z,86
2022-12-18T01:22:01.091Z,85.9
2022-12-18T01:23:01.256Z,85.9
2022-12-18T01:24:00.377Z,85.8
2022-12-18T01:25:00.528Z,85.7
2022-12-18T01:26:00.672Z,85.6
2022-12-18T01:27:00.822Z,85.6
2022-12-18T01:28:00.985Z,85.7
2022-12-18T01:29:01.126Z,85.8
2022-12-18T01:31:00.357Z,85.9
2022-12-18T01:32:00.538Z,86.1
2022-12-18T01:33:00.647Z,86.3
2022-12-18T01:34:00.828Z,86.4
2022-12-18T01:35:00.936Z,86.6
2022-12-18T01:36:01.091Z,86.7
2022-12-18T01:37:01.226Z,86.8
2022-12-18T01:38:00.376Z,86.8
2022-12-18T01:39:00.537Z,86.9
2022-12-18T01:40:00.683Z,86.9
2022-12-18T01:41:00.827Z,87
2022-12-18T01:42:00.963Z,87.1
2022-12-18T01:43:01.130Z,87
2022-12-18T01:44:00.264Z,86.9
2022-12-18T01:45:00.457Z,86.8
2022-12-18T01:46:00.633Z,86.7
2022-12-18T01:47:00.721Z,86.7
2022-12-18T01:48:00.872Z,86.6
2022-12-18T01:49:01.023Z,86.3
2022-12-18T01:50:01.197Z,86.2
2022-12-18T01:51:00.316Z,86.1
2022-12-18T01:52:00.462Z,86.1
2022-12-18T01:53:00.612Z,86.1
2022-12-18T01:54:00.756Z,86.1
2022-12-18T01:55:00.928Z,86.1
2022-12-18T01:56:01.052Z,86.1
2022-12-18T01:57:01.189Z,86
2022-12-18T01:58:00.350Z,86
2022-12-18T01:59:00.482Z,86
2022-12-18T02:00:00.662Z,86
2022-12-18T02:01:00.873Z,86.1
2022-12-18T02:02:01.114Z,86.1
2022-12-18T02:03:01.098Z,86.2
2022-12-18T02:04:01.232Z,86.2
2022-12-18T02:05:00.386Z,86.2
2022-12-18T02:06:00.523Z,86.3
2022-12-18T02:07:00.670Z,86.3
2022-12-18T02:08:00.816Z,86.4
2022-12-18T02:09:00.968Z,86.4
2022-12-18T02:10:01.135Z,86.5
2022-12-18T02:11:00.257Z,86.5
2022-12-18T02:12:00.400Z,86.5
2022-12-18T02:13:00.539Z,86.6
2022-12-18T02:14:00.696Z,86.6
2022-12-18T02:15:00.893Z,86.7
2022-12-18T02:16:01.047Z,86.4
2022-12-18T02:17:01.240Z,86.4
2022-12-18T02:18:00.339Z,86.5
2022-12-18T02:19:00.489Z,86.5
2022-12-18T02:20:00.650Z,86.6
2022-12-18T02:21:00.811Z,86.5
2022-12-18T02:22:00.929Z,86.5
2022-12-18T02:23:01.080Z,86.6
2022-12-18T02:24:01.230Z,86.5
2022-12-18T02:25:00.394Z,86.4
2022-12-18T02:26:00.552Z,86.3
2022-12-18T02:27:00.678Z,86.2
2022-12-18T02:28:00.825Z,86.1
2022-12-18T02:29:00.976Z,86
2022-12-18T02:30:01.134Z,86
2022-12-18T02:31:00.338Z,86
2022-12-18T02:32:00.409Z,85.9
2022-12-18T02:33:00.552Z,85.9
2022-12-18T02:34:00.707Z,85.9
2022-12-18T02:35:00.854Z,85.9
2022-12-18T02:36:01.013Z,85.9
2022-12-18T02:37:01.138Z,85.9
2022-12-18T02:38:00.277Z,85.8
2022-12-18T02:39:00.427Z,85.7
2022-12-18T02:40:00.583Z,85.7
2022-12-18T02:41:00.844Z,85.8
2022-12-18T02:42:00.879Z,85.8
2022-12-18T02:43:01.019Z,85.9
2022-12-18T02:44:01.165Z,85.9
2022-12-18T02:45:00.301Z,85.8
2022-12-18T02:46:00.535Z,85.7
2022-12-18T02:47:00.599Z,85.6
2022-12-18T02:48:00.747Z,85.7
2022-12-18T02:49:00.898Z,85.7
2022-12-18T02:50:01.048Z,85.7
2022-12-18T02:51:01.200Z,85.7
2022-12-18T02:52:00.333Z,85.7
2022-12-18T02:53:00.486Z,85.6
2022-12-18T02:54:00.622Z,85.6
2022-12-18T02:55:00.771Z,85.6
2022-12-18T02:56:00.959Z,85.5
2022-12-18T02:57:01.087Z,85.6
2022-12-18T02:58:01.238Z,85.6
2022-12-18T02:59:00.382Z,85.6
2022-12-18T03:00:00.524Z,85.6
2022-12-18T03:01:00.746Z,85.6
2022-12-18T03:02:01.119Z,85.5
2022-12-18T03:03:01.077Z,85.5
2022-12-18T03:04:01.118Z,85.6
2022-12-18T03:05:00.283Z,85.5
2022-12-18T03:06:00.402Z,85.6
2022-12-18T03:07:00.530Z,85.7
2022-12-18T03:08:00.686Z,85.8
2022-12-18T03:09:00.814Z,85.8
2022-12-18T03:10:01.008Z,85.7
2022-12-18T03:11:01.106Z,85.8
2022-12-18T03:12:01.255Z,85.7
2022-12-18T03:13:00.394Z,85.7
2022-12-18T03:14:00.541Z,85.7
2022-12-18T03:15:00.732Z,85.8
2022-12-18T03:16:00.844Z,85.9
2022-12-18T03:17:01.036Z,86
2022-12-18T03:18:01.137Z,85.8
2022-12-18T03:19:00.280Z,85.8
2022-12-18T03:20:00.445Z,85.8
2022-12-18T03:21:00.591Z,85.8
2022-12-18T03:22:00.724Z,85.8
2022-12-18T03:23:00.860Z,85.8
2022-12-18T03:24:01.017Z,85.9
2022-12-18T03:25:01.165Z,85.9
2022-12-18T03:26:05.832Z,85.9
2022-12-18T03:27:00.452Z,85.9
2022-12-18T03:28:00.605Z,85.8
2022-12-18T03:29:00.743Z,85.5
2022-12-18T03:30:00.965Z,85.4
2022-12-18T03:31:01.143Z,85.5
2022-12-18T03:32:01.185Z,85.6
2022-12-18T03:33:00.635Z,85.8
2022-12-18T03:34:00.482Z,85.8
2022-12-18T03:35:00.639Z,85.9
2022-12-18T03:36:00.794Z,85.9
2022-12-18T03:37:00.940Z,86
2022-12-18T03:38:01.094Z,86
2022-12-18T03:39:01.220Z,85.8
2022-12-18T03:40:00.360Z,85.7
2022-12-18T03:41:00.516Z,85.9
2022-12-18T03:42:00.650Z,85.9
2022-12-18T03:43:00.837Z,86
2022-12-18T03:44:00.943Z,86
2022-12-18T03:45:01.097Z,86
2022-12-18T03:46:01.364Z,86
2022-12-18T03:47:00.389Z,86
2022-12-18T03:48:00.543Z,86
2022-12-18T03:49:00.676Z,86
2022-12-18T03:50:00.828Z,85.9
2022-12-18T03:51:00.974Z,85.8
2022-12-18T03:52:01.115Z,85.9
2022-12-18T03:53:00.291Z,85.9
2022-12-18T03:54:00.412Z,85.8
2022-12-18T03:55:00.560Z,85.9
2022-12-18T03:56:00.705Z,85.8
2022-12-18T03:57:00.867Z,85.7
2022-12-18T03:58:01.011Z,85.6
2022-12-18T03:59:01.155Z,85.6
2022-12-18T04:00:00.282Z,85.6
2022-12-18T04:01:00.441Z,85.6
2022-12-18T04:02:00.828Z,85.6
2022-12-18T04:03:00.729Z,85.6
2022-12-18T04:04:01.045Z,85.6
2022-12-18T04:05:01.024Z,85.5
2022-12-18T04:06:01.181Z,85.5
2022-12-18T04:07:00.322Z,85.6
2022-12-18T04:08:00.475Z,85.5
2022-12-18T04:09:00.628Z,85.4
2022-12-18T04:10:00.779Z,85.3
2022-12-18T04:11:00.913Z,85.2
2022-12-18T04:12:01.061Z,85.2
2022-12-18T04:13:01.209Z,85.3
2022-12-18T04:14:01.953Z,85.3
2022-12-18T04:15:00.537Z,85.2
2022-12-18T04:16:00.712Z,85.3
2022-12-18T04:17:00.820Z,85.3
2022-12-18T04:18:00.965Z,85.4
2022-12-18T04:19:01.123Z,85.3
2022-12-18T04:20:00.296Z,85.2
2022-12-18T04:21:00.405Z,85.3
2022-12-18T04:22:00.572Z,85.2
2022-12-18T04:23:00.712Z,85.1
2022-12-18T04:24:00.859Z,85
2022-12-18T04:25:01.013Z,85.1
2022-12-18T04:26:01.164Z,85.1
2022-12-18T04:27:00.282Z,85.1
2022-12-18T04:28:00.435Z,85.2
2022-12-18T04:29:00.587Z,85.2
2022-12-18T04:30:00.731Z,85.3
2022-12-18T04:31:00.956Z,85.3
2022-12-18T04:32:01.019Z,85.3
2022-12-18T04:33:01.169Z,85.3
2022-12-18T04:34:00.304Z,85.2
2022-12-18T04:35:00.446Z,85.2
2022-12-18T04:36:00.625Z,85.2
2022-12-18T04:37:00.747Z,85.3
2022-12-18T04:38:00.882Z,85.3
2022-12-18T04:39:01.041Z,85.3
2022-12-18T04:40:01.182Z,85.4
2022-12-18T04:41:00.360Z,85.4
2022-12-18T04:42:00.487Z,85.4
2022-12-18T04:43:00.683Z,85.4
2022-12-18T04:44:00.784Z,85.4
2022-12-18T04:45:00.952Z,85.3
2022-12-18T04:46:01.152Z,85.3
2022-12-18T04:47:01.244Z,85.3
2022-12-18T04:48:00.387Z,85.3
2022-12-18T04:49:00.546Z,85.3
2022-12-18T04:50:00.688Z,85.3
2022-12-18T04:51:00.854Z,85.3
2022-12-18T04:52:01.006Z,85.3
2022-12-18T04:53:01.129Z,85.3
2022-12-18T04:54:00.268Z,85.4
2022-12-18T04:55:00.424Z,85.4
2022-12-18T04:56:00.570Z,85.4
2022-12-18T04:57:00.741Z,85.4
2022-12-18T04:58:00.900Z,85.4
2022-12-18T04:59:01.025Z,85.3
2022-12-18T05:00:01.167Z,85.3
2022-12-18T05:01:00.312Z,85.3
2022-12-18T05:02:00.565Z,85.2
2022-12-18T05:03:00.692Z,85.2
2022-12-18T05:04:00.796Z,85.2
2022-12-18T05:05:00.901Z,85.3
2022-12-18T05:06:01.052Z,85.4
2022-12-18T05:07:01.191Z,85.5
2022-12-18T05:08:00.355Z,85.5
2022-12-18T05:09:00.489Z,85.5
2022-12-18T05:10:00.641Z,85.5
2022-12-18T05:11:00.791Z,85.5
2022-12-18T05:12:00.926Z,85.6
2022-12-18T05:13:01.335Z,85.9
2022-12-18T05:14:01.226Z,86
2022-12-18T05:15:00.365Z,86
2022-12-18T05:16:00.663Z,86
2022-12-18T05:17:01.269Z,86
2022-12-18T05:18:00.872Z,86
2022-12-18T05:19:00.993Z,86.1
2022-12-18T05:20:01.150Z,86.1
2022-12-18T05:21:00.300Z,86.1
2022-12-18T05:22:00.453Z,86.2
2022-12-18T05:23:00.624Z,86.2
2022-12-18T05:24:00.758Z,86.1
2022-12-18T05:25:00.896Z,86.2
2022-12-18T05:26:01.053Z,86.2
2022-12-18T05:27:01.203Z,86.3
2022-12-18T05:28:00.358Z,86.4
2022-12-18T05:29:00.487Z,86.4
2022-12-18T05:30:00.639Z,86.4
2022-12-18T05:31:00.841Z,86.4
2022-12-18T05:32:00.929Z,86.5
2022-12-18T05:33:01.102Z,86.5
2022-12-18T05:34:01.216Z,86.3
2022-12-18T05:35:00.366Z,86.3
2022-12-18T05:36:00.510Z,86.4
2022-12-18T05:37:00.661Z,86.4
2022-12-18T05:38:00.845Z,86.4
2022-12-18T05:39:00.966Z,86.5
2022-12-18T05:40:01.117Z,86.5
2022-12-18T05:41:00.268Z,86.5
2022-12-18T05:42:00.395Z,86.6
2022-12-18T05:43:00.563Z,86.4
2022-12-18T05:44:00.701Z,86.3
2022-12-18T05:45:00.869Z,86
2022-12-18T05:46:00.998Z,85.9
2022-12-18T05:47:01.175Z,85.9
2022-12-18T05:48:00.282Z,85.8
2022-12-18T05:49:00.423Z,85.7
2022-12-18T05:50:00.588Z,85.7
2022-12-18T05:51:00.730Z,85.6
2022-12-18T05:52:00.859Z,85.6
2022-12-18T05:53:01.003Z,85.6
2022-12-18T05:54:01.152Z,85.6
2022-12-18T05:55:00.319Z,85.5
2022-12-18T05:56:00.450Z,85.5
2022-12-18T05:57:00.609Z,85.5
2022-12-18T05:58:00.740Z,85.7
2022-12-18T05:59:00.886Z,85.8
2022-12-18T06:00:01.044Z,86
2022-12-18T06:01:01.206Z,86.1
2022-12-18T06:02:00.511Z,86.2
2022-12-18T06:03:00.611Z,86.3
2022-12-18T06:04:00.720Z,86.4
2022-12-18T06:05:00.798Z,86.4
2022-12-18T06:06:00.955Z,86.5
2022-12-18T06:07:01.116Z,86.6
2022-12-18T06:08:01.256Z,86.7
2022-12-18T06:09:00.430Z,86.8
2022-12-18T06:10:00.546Z,86.8
2022-12-18T06:11:00.690Z,86.8
2022-12-18T06:12:00.848Z,86.8
2022-12-18T06:13:00.977Z,86.7
2022-12-18T06:14:01.146Z,86.7
2022-12-18T06:15:00.270Z,86.7
2022-12-18T06:16:00.456Z,86.6
2022-12-18T06:17:00.579Z,86.5
2022-12-18T06:18:00.721Z,86.3
2022-12-18T06:19:00.891Z,86.3
2022-12-18T06:20:01.012Z,86.3
2022-12-18T06:21:01.156Z,86.3
2022-12-18T06:22:00.293Z,86.4
2022-12-18T06:23:00.450Z,86.4
2022-12-18T06:24:00.607Z,86.5
2022-12-18T06:25:00.756Z,86.5
2022-12-18T06:26:00.884Z,86.5
2022-12-18T06:27:01.032Z,86.5
2022-12-18T06:28:01.175Z,86.5
2022-12-18T06:29:00.343Z,86.5
2022-12-18T06:30:00.456Z,86.4
2022-12-18T06:31:00.611Z,86.4
2022-12-18T06:32:00.880Z,86.3
2022-12-18T06:33:00.897Z,86.3
2022-12-18T06:34:01.058Z,86.3
2022-12-18T06:35:01.186Z,86.3
2022-12-18T06:36:01.325Z,86.3
2022-12-18T06:37:00.501Z,86.3
2022-12-18T06:38:00.637Z,86.3
2022-12-18T06:39:00.809Z,86.3
2022-12-18T06:40:00.946Z,86.3
2022-12-18T06:41:01.142Z,86.3
2022-12-18T06:42:00.269Z,86.4
2022-12-18T06:43:00.425Z,86.5
2022-12-18T06:44:00.563Z,86.6
2022-12-18T06:45:00.710Z,86.6
2022-12-18T06:46:00.968Z,86.7
2022-12-18T06:47:01.030Z,86.7
2022-12-18T06:48:01.152Z,86.6
2022-12-18T06:49:00.318Z,86.5
2022-12-18T06:50:00.440Z,86.5
2022-12-18T06:51:00.602Z,86.5
2022-12-18T06:52:00.747Z,86.4
2022-12-18T06:53:00.916Z,86.5
2022-12-18T06:54:01.060Z,86.5
2022-12-18T06:55:01.171Z,86.5
2022-12-18T06:56:05.113Z,86.5
2022-12-18T06:57:00.455Z,86.5
2022-12-18T06:58:00.606Z,86.4
2022-12-18T06:59:00.754Z,86.4
2022-12-18T07:00:00.899Z,86.4
2022-12-18T07:01:01.085Z,86.2
2022-12-18T07:02:01.319Z,86.1
2022-12-18T07:03:00.447Z,86.1
2022-12-18T07:04:00.507Z,86.1
2022-12-18T07:05:02.020Z,86.1
2022-12-18T07:06:00.770Z,86.1
2022-12-18T07:07:00.933Z,86.1
2022-12-18T07:08:01.076Z,86
2022-12-18T07:09:01.250Z,86.1
2022-12-18T07:10:00.374Z,86.2
2022-12-18T07:11:00.527Z,86.2
2022-12-18T07:12:00.665Z,86.2
2022-12-18T07:13:00.817Z,86.2
2022-12-18T07:14:00.979Z,86.1
2022-12-18T07:15:01.116Z,86.1
2022-12-18T07:16:00.299Z,86.2
2022-12-18T07:17:00.449Z,86.3
2022-12-18T07:18:00.563Z,86.3
2022-12-18T07:19:00.735Z,86.3
2022-12-18T07:20:00.843Z,86.2
2022-12-18T07:21:00.998Z,86.2
2022-12-18T07:22:01.150Z,86.1
2022-12-18T07:23:00.289Z,86
2022-12-18T07:24:00.453Z,85.9
2022-12-18T07:25:00.607Z,85.7
2022-12-18T07:26:00.728Z,85.7
2022-12-18T07:27:00.903Z,85.8
2022-12-18T07:28:01.037Z,86
2022-12-18T07:29:01.176Z,86
2022-12-18T07:30:00.338Z,86.1
2022-12-18T07:31:00.466Z,86.1
2022-12-18T07:32:00.691Z,86
2022-12-18T07:33:00.797Z,86
2022-12-18T07:34:00.913Z,85.9
2022-12-18T07:35:01.064Z,85.9
2022-12-18T07:36:01.222Z,85.8
2022-12-18T07:37:00.364Z,85.8
2022-12-18T07:38:00.527Z,85.9
2022-12-18T07:39:00.686Z,85.9
2022-12-18T07:40:00.813Z,85.9
2022-12-18T07:41:00.945Z,85.9
2022-12-18T07:42:01.085Z,86
2022-12-18T07:43:01.231Z,86
2022-12-18T07:44:00.394Z,86.1
2022-12-18T07:45:00.536Z,86.1
2022-12-18T07:46:00.746Z,86
2022-12-18T07:47:00.821Z,86
2022-12-18T07:48:00.969Z,86
2022-12-18T07:49:01.123Z,85.9
2022-12-18T07:50:00.275Z,85.8
2022-12-18T07:51:00.419Z,85.9
2022-12-18T07:52:00.564Z,85.9
2022-12-18T07:53:00.718Z,86
2022-12-18T07:54:00.876Z,86
2022-12-18T07:55:01.045Z,86.1
2022-12-18T07:56:26.092Z,86.1
2022-12-18T07:57:00.317Z,86.2
2022-12-18T07:58:01.245Z,86.2
2022-12-18T07:59:00.848Z,86.2
2022-12-18T08:00:00.782Z,86.2
2022-12-18T08:01:00.963Z,86.2
2022-12-18T08:02:01.196Z,86.1
2022-12-18T08:03:01.331Z,86.1
2022-12-18T08:04:00.358Z,85.9
2022-12-18T08:05:00.526Z,85.8
2022-12-18T08:06:00.676Z,85.9
2022-12-18T08:07:00.813Z,85.9
2022-12-18T08:08:00.943Z,85.7
2022-12-18T08:09:01.147Z,85.8
2022-12-18T08:10:01.241Z,85.7
2022-12-18T08:11:00.407Z,85.7
2022-12-18T08:12:00.533Z,85.6
2022-12-18T08:13:04.919Z,85.5
2022-12-18T08:14:00.836Z,85.6
2022-12-18T08:15:00.986Z,85.7
2022-12-18T08:16:01.147Z,85.7
2022-12-18T08:17:00.379Z,85.6
2022-12-18T08:18:00.420Z,85.6
2022-12-18T08:19:00.567Z,85.7
2022-12-18T08:20:00.720Z,85.7
2022-12-18T08:21:00.905Z,85.6
2022-12-18T08:22:01.031Z,85.6
2022-12-18T08:23:01.168Z,85.9
2022-12-18T08:24:00.370Z,86.1
2022-12-18T08:25:00.464Z,86.2
2022-12-18T08:26:00.613Z,86.3
2022-12-18T08:27:28.410Z,86.3
2022-12-18T08:28:00.893Z,86.4
2022-12-18T08:29:01.066Z,86.4
2022-12-18T08:30:01.199Z,86.4
2022-12-18T08:31:00.414Z,86.5
2022-12-18T08:32:00.541Z,86.6
2022-12-18T08:33:00.633Z,86.7
2022-12-18T08:34:00.814Z,86.8
2022-12-18T08:35:00.941Z,87
2022-12-18T08:36:01.085Z,87.1
2022-12-18T08:37:01.236Z,87.1
2022-12-18T08:38:00.387Z,87.1
2022-12-18T08:39:00.550Z,87.1
2022-12-18T08:40:00.684Z,87.2
2022-12-18T08:41:00.828Z,87.4
2022-12-18T08:42:05.409Z,87.4
2022-12-18T08:43:01.117Z,87.4
2022-12-18T08:44:00.277Z,87.5
2022-12-18T08:45:00.455Z,87.3
2022-12-18T08:46:00.756Z,87.1
2022-12-18T08:47:00.721Z,87
2022-12-18T08:48:00.853Z,87
2022-12-18T08:49:01.009Z,87
2022-12-18T08:50:01.176Z,86.9
2022-12-18T08:51:00.305Z,87.1
2022-12-18T08:52:00.443Z,87.2
2022-12-18T08:53:00.621Z,87.4
2022-12-18T08:54:00.751Z,87.6
2022-12-18T08:55:00.896Z,87.5
2022-12-18T08:56:01.030Z,87.4
2022-12-18T08:57:01.253Z,87.3
2022-12-18T08:58:00.355Z,87.4
2022-12-18T08:59:00.464Z,87.5
2022-12-18T09:00:00.613Z,87.5
2022-12-18T09:01:00.821Z,87.4
2022-12-18T09:02:01.216Z,87.4
2022-12-18T09:03:01.140Z,87.3
2022-12-18T09:04:01.202Z,87.3
2022-12-18T09:05:00.364Z,87.3
2022-12-18T09:06:00.541Z,87.2
2022-12-18T09:07:00.658Z,87.2
2022-12-18T09:08:00.836Z,87.3
2022-12-18T09:09:00.952Z,87.2
2022-12-18T09:10:01.106Z,87.2
2022-12-18T09:11:01.247Z,87.1
2022-12-18T09:12:00.381Z,87.1
2022-12-18T09:13:00.558Z,87.5
2022-12-18T09:14:00.672Z,87.6
2022-12-18T09:15:00.829Z,87.8
2022-12-18T09:16:00.977Z,88
2022-12-18T09:17:01.174Z,88.2
2022-12-18T09:18:00.286Z,88.4
2022-12-18T09:19:00.430Z,88.3
2022-12-18T09:20:00.565Z,88.2
2022-12-18T09:21:00.703Z,88
2022-12-18T09:22:00.853Z,88
2022-12-18T09:23:01.017Z,88.2
2022-12-18T09:24:01.172Z,88.4
2022-12-18T09:25:00.298Z,88.5
2022-12-18T09:26:00.438Z,88.7
2022-12-18T09:27:00.599Z,88.8
2022-12-18T09:28:00.738Z,88.8
2022-12-18T09:29:00.909Z,88.7
2022-12-18T09:30:01.068Z,88.6
2022-12-18T09:31:01.228Z,88.5
2022-12-18T09:32:00.317Z,88.3
2022-12-18T09:33:00.466Z,88.3
2022-12-18T09:34:00.611Z,88.2
2022-12-18T09:35:00.769Z,88
2022-12-18T09:36:00.922Z,88
2022-12-18T09:37:01.055Z,88.1
2022-12-18T09:38:01.196Z,88.1
2022-12-18T09:39:05.001Z,88.1
2022-12-18T09:40:00.606Z,88.1
2022-12-18T09:41:00.672Z,88.3
2022-12-18T09:42:00.824Z,88.5
2022-12-18T09:43:00.941Z,88.5
2022-12-18T09:44:01.087Z,88.4
2022-12-18T09:45:01.318Z,88.3
2022-12-18T09:46:00.404Z,88.6
2022-12-18T09:47:00.564Z,88.5
2022-12-18T09:48:00.678Z,88.3
2022-12-18T09:49:00.830Z,88.3
2022-12-18T09:50:00.970Z,88.3
2022-12-18T09:51:01.127Z,88.4
2022-12-18T09:52:00.287Z,88.5
2022-12-18T09:53:00.428Z,88.5
2022-12-18T09:54:00.575Z,88.5
2022-12-18T09:55:00.742Z,88.5
2022-12-18T09:56:00.919Z,88.2
2022-12-18T09:57:01.053Z,88.1
2022-12-18T09:58:01.175Z,88.2
2022-12-18T09:59:00.316Z,88.1
2022-12-18T10:00:00.459Z,88
2022-12-18T10:01:00.616Z,87.9
2022-12-18T10:02:00.919Z,87.9
2022-12-18T10:03:00.986Z,88.3
2022-12-18T10:04:01.083Z,88.6
2022-12-18T10:05:01.192Z,88.7
2022-12-18T10:06:00.339Z,88.7
2022-12-18T10:07:05.650Z,88.7
2022-12-18T10:08:00.629Z,88.6
2022-12-18T10:09:00.773Z,88.4
2022-12-18T10:10:00.926Z,88.2
2022-12-18T10:11:01.058Z,88.2
2022-12-18T10:12:01.231Z,88.1
2022-12-18T10:13:04.466Z,88.1
2022-12-18T10:14:00.496Z,88.2
2022-12-18T10:15:00.650Z,88.2
2022-12-18T10:16:00.898Z,88.3
2022-12-18T10:17:00.959Z,88.2
2022-12-18T10:18:01.128Z,88
2022-12-18T10:19:01.241Z,87.8
2022-12-18T10:20:00.404Z,87.8
2022-12-18T10:21:00.547Z,87.7
2022-12-18T10:22:00.709Z,87.5
2022-12-18T10:23:00.866Z,87.2
2022-12-18T10:24:01.005Z,86.8
2022-12-18T10:25:01.139Z,86.6
2022-12-18T10:26:00.298Z,86.4
2022-12-18T10:27:00.459Z,86.2
2022-12-18T10:28:00.594Z,86
2022-12-18T10:29:05.288Z,85.9
2022-12-18T10:30:00.892Z,85.8
2022-12-18T10:31:01.088Z,85.8
2022-12-18T10:32:01.222Z,86
2022-12-18T10:33:00.337Z,86
2022-12-18T10:34:00.477Z,85.8
2022-12-18T10:35:01.140Z,85.6
2022-12-18T10:36:00.772Z,85.4
2022-12-18T10:37:00.948Z,85.2
2022-12-18T10:38:01.068Z,85.2
2022-12-18T10:39:01.212Z,85.4
2022-12-18T10:40:00.354Z,85.4
2022-12-18T10:41:00.491Z,85.5
2022-12-18T10:42:00.655Z,85.6
2022-12-18T10:43:00.806Z,85.4
2022-12-18T10:44:00.949Z,85.3
2022-12-18T10:45:01.107Z,85.2
2022-12-18T10:46:01.343Z,85
2022-12-18T10:47:00.399Z,85
2022-12-18T10:48:00.534Z,85
2022-12-18T10:49:00.703Z,85.1
2022-12-18T10:50:00.836Z,85
2022-12-18T10:51:10.938Z,84.9
2022-12-18T10:52:01.126Z,85
2022-12-18T10:53:00.278Z,85.2
2022-12-18T10:54:00.469Z,85.4
2022-12-18T10:55:00.593Z,85.3
2022-12-18T10:56:00.729Z,85
2022-12-18T10:57:00.874Z,84.7
2022-12-18T10:58:01.015Z,84.8
2022-12-18T10:59:01.176Z,85.1
2022-12-18T11:00:00.309Z,85.6
2022-12-18T11:01:00.464Z,86.1
2022-12-18T11:02:00.715Z,86.5
2022-12-18T11:03:00.873Z,86.5
2022-12-18T11:04:02.547Z,86.4
2022-12-18T11:05:01.037Z,86.3
2022-12-18T11:06:01.204Z,86.2
2022-12-18T11:07:00.317Z,86.1
2022-12-18T11:08:00.472Z,86.2
2022-12-18T11:09:00.613Z,86.5
2022-12-18T11:10:00.751Z,86.4
2022-12-18T11:11:00.928Z,86.1
2022-12-18T11:12:01.054Z,85.7
2022-12-18T11:13:01.196Z,85.4
2022-12-18T11:14:00.335Z,85.3
2022-12-18T11:15:00.491Z,85.1
2022-12-18T11:16:00.715Z,85
2022-12-18T11:17:25.513Z,85
2022-12-18T11:18:00.928Z,85.1
2022-12-18T11:19:01.072Z,84.9
2022-12-18T11:20:01.223Z,84.6
2022-12-18T11:21:00.375Z,84.2
2022-12-18T11:22:00.539Z,83.9
2022-12-18T11:23:00.661Z,83.7
2022-12-18T11:24:00.816Z,83.7
2022-12-18T11:25:33.490Z,83.8
2022-12-18T11:26:01.108Z,83.8
2022-12-18T11:27:01.273Z,83.7
2022-12-18T11:28:00.391Z,83.8
2022-12-18T11:29:00.538Z,83.7
2022-12-18T11:30:00.691Z,83.5
2022-12-18T11:31:00.929Z,83.4
2022-12-18T11:32:01.000Z,83.5
2022-12-18T11:33:01.137Z,83.5
2022-12-18T11:34:27.404Z,83.5
2022-12-18T11:35:00.420Z,83.5
2022-12-18T11:36:00.566Z,83.6
2022-12-18T11:37:00.738Z,83.9
2022-12-18T11:38:00.888Z,83.8
2022-12-18T11:39:01.040Z,83.7
2022-12-18T11:40:01.174Z,83.9
2022-12-18T11:41:00.336Z,84.4
2022-12-18T11:42:00.458Z,84.4
2022-12-18T11:43:00.624Z,84.5
2022-12-18T11:44:00.759Z,84.5
2022-12-18T11:45:00.935Z,84.6
2022-12-18T11:46:01.046Z,84.6
2022-12-18T11:47:01.262Z,84.7
2022-12-18T11:48:00.345Z,84.9
2022-12-18T11:49:00.492Z,85
2022-12-18T11:50:00.656Z,85
2022-12-18T11:51:00.828Z,84.9
2022-12-18T11:52:00.937Z,84.6
2022-12-18T11:53:05.916Z,84.6
2022-12-18T11:54:01.238Z,84.5
2022-12-18T11:55:00.394Z,84.3
2022-12-18T11:56:00.544Z,84
2022-12-18T11:57:00.675Z,83.4
2022-12-18T11:58:00.829Z,83.4
2022-12-18T11:59:00.968Z,83.7
2022-12-18T12:00:01.110Z,84.4
2022-12-18T12:01:01.347Z,84.6
2022-12-18T12:02:00.562Z,84.5
2022-12-18T12:03:00.610Z,84.7
2022-12-18T12:04:00.737Z,84.7
2022-12-18T12:05:00.840Z,84.3
2022-12-18T12:06:01.023Z,83.9
2022-12-18T12:07:03.355Z,83.6
2022-12-18T12:08:00.317Z,83.4
2022-12-18T12:09:00.454Z,83.9
2022-12-18T12:10:00.576Z,83.7
2022-12-18T12:11:00.721Z,83.9
2022-12-18T12:12:00.870Z,84.3
2022-12-18T12:13:00.995Z,84.4
2022-12-18T12:14:01.151Z,84.3
2022-12-18T12:15:00.293Z,84.4
2022-12-18T12:16:00.513Z,84.4
2022-12-18T12:17:00.609Z,84
2022-12-18T12:18:00.724Z,83.7
2022-12-18T12:19:00.886Z,83.6
2022-12-18T12:20:01.029Z,83.6
2022-12-18T12:21:01.171Z,83.7
2022-12-18T12:22:00.323Z,84
2022-12-18T12:23:00.463Z,84.5
2022-12-18T12:24:00.636Z,84.7
2022-12-18T12:25:00.778Z,84.5
2022-12-18T12:26:00.931Z,84
2022-12-18T12:27:01.086Z,83.8
2022-12-18T12:28:01.222Z,83.5
2022-12-18T12:29:00.386Z,83.2
2022-12-18T12:30:00.515Z,83.2
2022-12-18T12:31:00.664Z,83.2
2022-12-18T12:32:00.906Z,83.3
2022-12-18T12:33:00.972Z,83.1
2022-12-18T12:34:01.132Z,82.8
2022-12-18T12:35:06.074Z,82.6
2022-12-18T12:36:00.396Z,82.5
2022-12-18T12:37:00.540Z,82.5
2022-12-18T12:38:00.689Z,82.8
2022-12-18T12:39:00.860Z,82.9
2022-12-18T12:40:07.299Z,82.9
2022-12-18T12:41:03.355Z,82.8
2022-12-18T12:42:00.264Z,82.7
2022-12-18T12:43:00.425Z,82.6
2022-12-18T12:44:00.575Z,82.5
2022-12-18T12:45:00.731Z,82.6
2022-12-18T12:46:00.968Z,82.7
2022-12-18T12:47:01.006Z,82.9
2022-12-18T12:48:01.142Z,82.9
2022-12-18T12:49:00.289Z,82.6
2022-12-18T12:50:00.445Z,82.4
2022-12-18T12:51:00.589Z,82.8
2022-12-18T12:52:00.750Z,83.2
2022-12-18T12:53:00.868Z,83.7
2022-12-18T12:54:01.016Z,83.5
2022-12-18T12:55:01.206Z,83.7
2022-12-18T12:56:00.323Z,83.7
2022-12-18T12:57:00.471Z,83.2
2022-12-18T12:58:00.620Z,82.6
2022-12-18T12:59:00.761Z,82.1
2022-12-18T13:00:00.951Z,81.8
2022-12-18T13:01:01.114Z,81.8
2022-12-18T13:02:01.292Z,81.8
2022-12-18T13:03:00.367Z,81.9
2022-12-18T13:04:00.520Z,81.9
2022-12-18T13:05:00.665Z,81.7
2022-12-18T13:06:00.804Z,81.6
2022-12-18T13:07:00.952Z,81.3
2022-12-18T13:08:01.092Z,80.9
2022-12-18T13:09:01.272Z,81.1
2022-12-18T13:10:00.390Z,81.7
2022-12-18T13:11:00.524Z,82.4
2022-12-18T13:12:00.775Z,82.7
2022-12-18T13:13:00.829Z,82.1
2022-12-18T13:14:00.969Z,81.6
2022-12-18T13:15:01.134Z,81.5
2022-12-18T13:16:00.264Z,81.8
2022-12-18T13:17:00.401Z,82.1
2022-12-18T13:18:00.550Z,81.9
2022-12-18T13:19:00.705Z,81.2
2022-12-18T13:20:00.871Z,81
2022-12-18T13:21:03.149Z,81.2
2022-12-18T13:22:01.135Z,81.7
2022-12-18T13:23:00.296Z,82
2022-12-18T13:24:00.442Z,82.4
2022-12-18T13:25:00.617Z,82.4
2022-12-18T13:26:00.735Z,82.4